Time;durP1;ratioP1;P1;durP2;ratioP2;P2;SDS_P1;SDS_P2;PMS_P1;PMS_P2;Temp;Humidity;BMP_temperature;BMP_pressure;BME280_temperature;BME280_humidity;BME280_pressure;Samples;Min_cycle;Max_cycle;Signal;HPM_P1;HPM_P2
2022/08/20 00:01:02;;;;;;;3.70;2.80;;;22.70;99.90;;;;;;5043219;28;20200;-67
2022/08/20 00:03:32;;;;;;;5.28;2.58;;;22.70;99.90;;;;;;5063784;28;20205;-67
2022/08/20 00:06:08;;;;;;;3.20;2.33;;;22.70;99.90;;;;;;5067153;28;20225;-67
2022/08/20 00:08:36;;;;;;;4.85;2.58;;;22.60;99.90;;;;;;5064163;28;20206;-67
2022/08/20 00:11:06;;;;;;;4.53;2.70;;;22.60;99.90;;;;;;5068135;28;20212;-67
2022/08/20 00:13:45;;;;;;;5.50;2.53;;;22.60;99.90;;;;;;5069129;28;20277;-68
2022/08/20 00:16:14;;;;;;;3.00;2.70;;;22.50;99.90;;;;;;5060669;28;20222;-68
2022/08/20 00:18:41;;;;;;;2.75;2.33;;;22.50;99.90;;;;;;5065176;28;20327;-67
2022/08/20 00:21:11;;;;;;;3.67;2.60;;;22.40;99.90;;;;;;5068481;28;20335;-67
2022/08/20 00:23:46;;;;;;;3.50;2.70;;;22.50;99.90;;;;;;5068977;28;20308;-68
2022/08/20 00:26:13;;;;;;;3.88;2.75;;;22.40;99.90;;;;;;5062114;28;20229;-68
2022/08/20 00:28:40;;;;;;;3.55;2.42;;;22.30;99.90;;;;;;5067813;28;20552;-67
2022/08/20 00:31:10;;;;;;;3.60;2.40;;;22.30;99.90;;;;;;5067970;28;20194;-67
2022/08/20 00:33:37;;;;;;;3.15;2.30;;;22.30;99.90;;;;;;5065980;28;20672;-68
2022/08/20 00:36:05;;;;;;;3.28;2.47;;;22.30;99.90;;;;;;5067234;28;20267;-67
2022/08/20 00:38:34;;;;;;;3.78;2.50;;;22.30;99.90;;;;;;5068243;28;20673;-68
2022/08/20 00:41:01;;;;;;;4.60;2.28;;;22.30;99.90;;;;;;5067127;28;20195;-68
2022/08/20 00:43:33;;;;;;;2.97;2.60;;;22.30;99.90;;;;;;5066045;28;20202;-68
2022/08/20 00:46:05;;;;;;;3.90;2.50;;;22.30;99.90;;;;;;5066639;28;20242;-67
2022/08/20 00:48:33;;;;;;;3.55;2.10;;;22.30;99.90;;;;;;5068315;28;20248;-68
2022/08/20 00:51:26;;;;;;;2.92;2.33;;;22.20;99.90;;;;;;5064516;28;20198;-68
2022/08/20 00:54:07;;;;;;;2.20;1.90;;;22.30;99.90;;;;;;5060904;28;20195;-68
2022/08/20 00:56:35;;;;;;;2.50;1.80;;;22.30;99.90;;;;;;5068039;28;20217;-69
2022/08/20 00:59:06;;;;;;;5.47;1.80;;;22.30;99.90;;;;;;5067991;28;20243;-69
2022/08/20 01:01:33;;;;;;;2.78;2.10;;;22.30;99.90;;;;;;5069702;28;20213;-68
2022/08/20 01:04:19;;;;;;;3.22;2.00;;;22.30;99.90;;;;;;5071775;28;20202;-67
2022/08/20 01:06:47;;;;;;;2.83;1.77;;;22.30;99.90;;;;;;5069642;28;20791;-66
2022/08/20 01:09:14;;;;;;;2.08;1.88;;;22.20;99.90;;;;;;5065098;28;20198;-67
2022/08/20 01:11:41;;;;;;;2.75;1.67;;;22.20;99.90;;;;;;5070523;28;20218;-68
2022/08/20 01:16:57;;;;;;;2.53;1.80;;;22.20;99.90;;;;;;5069851;28;20226;-67
2022/08/20 01:19:30;;;;;;;3.90;1.58;;;22.20;99.90;;;;;;5064744;28;20695;-68
2022/08/20 01:21:59;;;;;;;1.92;1.65;;;22.30;99.90;;;;;;5053488;28;20194;-67
2022/08/20 01:24:38;;;;;;;1.73;1.58;;;22.20;99.90;;;;;;5071130;28;20267;-68
2022/08/20 01:27:05;;;;;;;1.83;1.73;;;22.10;99.90;;;;;;5066006;28;20709;-67
2022/08/20 01:29:38;;;;;;;1.77;1.58;;;22.20;99.90;;;;;;5053189;28;20590;-69
2022/08/20 01:32:05;;;;;;;2.20;1.70;;;22.10;99.90;;;;;;5070914;28;20218;-68
2022/08/20 01:34:32;;;;;;;1.85;1.60;;;22.10;99.90;;;;;;5070783;28;20220;-67
2022/08/20 01:36:59;;;;;;;2.30;1.70;;;22.10;99.90;;;;;;5064652;28;20210;-67
2022/08/20 01:39:29;;;;;;;2.13;1.73;;;22.00;99.90;;;;;;5070965;28;20194;-69
2022/08/20 01:42:24;;;;;;;1.70;1.60;;;21.90;99.90;;;;;;5052878;28;20238;-67
2022/08/20 01:44:51;;;;;;;1.90;1.60;;;21.90;99.90;;;;;;5049728;28;20562;-68
2022/08/20 01:47:22;;;;;;;2.15;1.88;;;21.80;99.90;;;;;;5070352;28;20226;-67
2022/08/20 01:49:58;;;;;;;2.10;1.88;;;21.90;99.90;;;;;;5070644;28;20198;-68
2022/08/20 01:52:35;;;;;;;1.95;1.73;;;21.90;99.90;;;;;;5061951;28;20476;-70
2022/08/20 01:55:03;;;;;;;2.90;1.88;;;21.80;99.90;;;;;;5068428;28;20194;-68
2022/08/20 01:57:30;;;;;;;2.53;1.95;;;21.80;99.90;;;;;;5069952;28;20662;-68
2022/08/20 01:59:56;;;;;;;2.35;2.00;;;21.80;99.90;;;;;;5058225;28;20195;-68
2022/08/20 02:02:25;;;;;;;2.55;1.95;;;21.80;99.90;;;;;;5052239;28;20203;-68
2022/08/20 02:04:51;;;;;;;2.35;2.10;;;21.70;99.90;;;;;;5051493;28;20683;-68
2022/08/20 02:07:20;;;;;;;1.92;1.67;;;21.70;99.90;;;;;;5051562;28;20609;-67
2022/08/20 02:09:48;;;;;;;2.67;1.80;;;21.80;99.90;;;;;;5051792;28;20195;-66
2022/08/20 02:12:16;;;;;;;2.10;1.88;;;21.80;99.90;;;;;;5051369;28;20223;-68
2022/08/20 02:14:45;;;;;;;2.45;1.92;;;21.70;99.90;;;;;;5039683;28;20218;-68
2022/08/20 02:17:13;;;;;;;2.88;1.90;;;21.70;99.90;;;;;;5051177;28;20219;-67
2022/08/20 02:19:47;;;;;;;2.00;1.80;;;21.70;99.90;;;;;;5051851;28;20199;-68
2022/08/20 02:22:36;;;;;;;3.30;2.20;;;21.70;99.90;;;;;;5051663;28;20201;-68
2022/08/20 02:25:05;;;;;;;3.10;2.10;;;21.60;99.90;;;;;;5051436;28;20203;-69
2022/08/20 02:27:32;;;;;;;2.10;1.80;;;21.70;99.90;;;;;;5052233;28;20191;-68
2022/08/20 02:29:58;;;;;;;2.38;2.17;;;21.70;99.90;;;;;;5051492;28;20195;-67
2022/08/20 02:32:25;;;;;;;1.90;1.70;;;21.70;99.90;;;;;;5051545;28;20210;-69
2022/08/20 02:35:02;;;;;;;2.83;1.83;;;21.70;99.90;;;;;;5060555;28;20243;-68
2022/08/20 02:37:30;;;;;;;2.25;2.05;;;21.60;99.90;;;;;;5071227;28;20273;-67
2022/08/20 02:39:56;;;;;;;2.13;1.92;;;21.70;99.90;;;;;;5071485;28;20215;-69
2022/08/20 02:42:23;;;;;;;3.15;2.05;;;21.70;99.90;;;;;;5070695;28;20248;-68
2022/08/20 02:44:50;;;;;;;4.15;2.00;;;21.80;99.90;;;;;;5051323;28;20244;-67
2022/08/20 02:47:17;;;;;;;2.20;2.00;;;21.80;99.90;;;;;;5050770;28;20272;-68
2022/08/20 02:49:44;;;;;;;3.33;2.20;;;21.80;99.90;;;;;;5051010;28;20191;-67
2022/08/20 02:52:10;;;;;;;2.58;1.83;;;21.80;99.90;;;;;;5053190;28;20227;-68
2022/08/20 02:54:37;;;;;;;2.25;2.05;;;21.90;99.90;;;;;;5051395;28;20570;-68
2022/08/20 02:57:04;;;;;;;2.80;1.83;;;21.80;99.90;;;;;;5050801;28;20216;-68
2022/08/20 02:59:32;;;;;;;2.25;1.85;;;21.80;99.90;;;;;;5050935;28;20559;-68
2022/08/20 03:02:00;;;;;;;2.60;2.00;;;21.80;99.90;;;;;;5050663;28;20194;-68
2022/08/20 03:04:28;;;;;;;2.65;1.67;;;21.80;99.90;;;;;;5051168;28;20265;-70
2022/08/20 03:06:56;;;;;;;2.08;1.73;;;21.70;99.90;;;;;;5050839;28;20218;-69
2022/08/20 03:09:23;;;;;;;3.25;2.03;;;21.70;99.90;;;;;;5050849;28;20193;-68
2022/08/20 03:11:50;;;;;;;2.60;2.00;;;21.70;99.90;;;;;;5050712;28;20194;-68
2022/08/20 03:14:16;;;;;;;2.03;1.83;;;21.70;99.90;;;;;;5050860;28;20281;-68
2022/08/20 03:16:43;;;;;;;2.60;2.00;;;21.60;99.90;;;;;;5050781;28;20226;-68
2022/08/20 03:19:09;;;;;;;2.70;2.10;;;21.70;99.90;;;;;;5052700;28;20629;-67
2022/08/20 03:21:36;;;;;;;1.85;1.65;;;21.70;99.90;;;;;;5050960;28;20628;-68
2022/08/20 03:24:03;;;;;;;2.03;1.80;;;21.50;99.90;;;;;;5051313;28;20191;-68
2022/08/20 03:26:30;;;;;;;2.25;1.88;;;21.60;99.90;;;;;;5050134;28;20728;-68
2022/08/20 03:28:56;;;;;;;3.25;2.00;;;21.60;99.90;;;;;;5050903;28;20191;-68
2022/08/20 03:31:23;;;;;;;2.85;1.80;;;21.60;99.90;;;;;;5050693;28;20198;-68
2022/08/20 03:33:50;;;;;;;2.30;2.00;;;21.60;99.90;;;;;;5050452;28;20284;-67
2022/08/20 03:36:24;;;;;;;2.83;1.85;;;21.70;99.90;;;;;;5050173;28;20211;-68
2022/08/20 03:38:56;;;;;;;3.03;2.05;;;21.70;99.90;;;;;;5050444;28;20670;-68
2022/08/20 03:41:23;;;;;;;3.13;2.00;;;21.60;99.90;;;;;;5050488;28;20675;-69
2022/08/20 03:43:50;;;;;;;2.22;1.88;;;21.60;99.90;;;;;;5050110;28;20202;-68
2022/08/20 03:46:17;;;;;;;2.20;1.77;;;21.50;99.90;;;;;;5032365;28;20279;-68
2022/08/20 03:48:53;;;;;;;4.05;2.00;;;21.50;99.90;;;;;;5050370;28;20762;-68
2022/08/20 03:51:29;;;;;;;2.40;1.95;;;21.50;99.90;;;;;;5050210;28;20220;-67
2022/08/20 03:53:56;;;;;;;3.13;2.15;;;21.50;99.90;;;;;;5050135;28;20214;-69
2022/08/20 03:56:24;;;;;;;2.30;2.03;;;21.50;99.90;;;;;;5047009;28;20693;-68
2022/08/20 03:58:51;;;;;;;2.40;2.20;;;21.60;99.90;;;;;;5070692;28;20244;-69
2022/08/20 04:01:17;;;;;;;3.53;2.15;;;21.60;99.90;;;;;;5063746;28;20195;-68
2022/08/20 04:04:04;;;;;;;2.30;2.08;;;21.50;99.90;;;;;;5050343;28;20264;-68
2022/08/20 04:06:38;;;;;;;4.03;2.10;;;21.50;99.90;;;;;;5033147;28;20256;-68
2022/08/20 04:09:05;;;;;;;2.72;2.20;;;21.50;99.90;;;;;;5050182;28;20195;-68
2022/08/20 04:11:36;;;;;;;2.95;2.33;;;21.60;99.90;;;;;;5049893;28;20620;-68
2022/08/20 04:14:02;;;;;;;2.55;2.13;;;21.60;99.90;;;;;;5049912;28;20247;-68
2022/08/20 04:16:31;;;;;;;2.03;1.80;;;21.60;99.90;;;;;;5049664;28;20218;-67
2022/08/20 04:18:59;;;;;;;6.40;2.13;;;21.50;99.90;;;;;;5050043;28;20195;-68
2022/08/20 04:21:31;;;;;;;2.40;2.10;;;21.50;99.90;;;;;;5050137;28;20237;-66
2022/08/20 04:24:01;;;;;;;2.47;2.28;;;21.40;99.90;;;;;;5050062;28;20215;-68
2022/08/20 04:26:28;;;;;;;2.35;2.10;;;21.50;99.90;;;;;;5049524;28;20698;-68
2022/08/20 04:28:54;;;;;;;3.25;2.00;;;21.40;99.90;;;;;;5049916;28;20282;-68
2022/08/20 04:31:31;;;;;;;2.35;2.15;;;21.50;99.90;;;;;;5049846;28;20814;-68
2022/08/20 04:34:02;;;;;;;4.60;2.00;;;21.50;99.90;;;;;;5049921;28;20211;-68
2022/08/20 04:36:29;;;;;;;2.28;2.08;;;21.50;99.90;;;;;;5050915;28;20207;-67
2022/08/20 04:38:56;;;;;;;3.08;2.10;;;21.50;99.90;;;;;;5053855;28;20702;-68
2022/08/20 04:41:23;;;;;;;2.20;2.00;;;21.50;99.90;;;;;;5053763;28;20195;-68
2022/08/20 04:43:54;;;;;;;3.33;2.00;;;21.60;99.90;;;;;;5053388;28;20290;-68
2022/08/20 04:46:24;;;;;;;2.80;2.45;;;21.50;99.90;;;;;;5053099;28;20566;-69
2022/08/20 04:48:51;;;;;;;3.13;2.25;;;21.50;99.90;;;;;;5053903;28;20195;-69
2022/08/20 04:51:20;;;;;;;2.88;2.00;;;21.50;99.90;;;;;;5067612;28;20205;-68
2022/08/20 04:53:50;;;;;;;2.38;1.88;;;21.50;99.90;;;;;;5053329;28;20215;-68
2022/08/20 04:56:24;;;;;;;2.47;2.13;;;21.50;99.90;;;;;;5053107;28;20682;-68
2022/08/20 04:58:56;;;;;;;2.30;2.10;;;21.50;99.90;;;;;;5053033;28;20202;-68
2022/08/20 05:01:27;;;;;;;2.72;2.15;;;21.50;99.90;;;;;;5058260;28;20379;-68
2022/08/20 05:03:56;;;;;;;3.63;2.13;;;21.40;99.90;;;;;;5038906;28;20658;-67
2022/08/20 05:06:28;;;;;;;2.20;2.00;;;21.40;99.90;;;;;;5069287;28;20220;-68
2022/08/20 05:08:57;;;;;;;5.75;2.70;;;21.40;99.90;;;;;;5070020;28;20202;-68
2022/08/20 05:11:24;;;;;;;2.80;2.10;;;21.50;99.90;;;;;;5062147;28;20198;-68
2022/08/20 05:14:05;;;;;;;3.47;2.22;;;21.40;99.90;;;;;;5050124;28;20303;-68
2022/08/20 05:16:37;;;;;;;3.25;2.47;;;21.40;99.90;;;;;;5069402;28;20222;-68
2022/08/20 05:19:11;;;;;;;3.60;2.47;;;21.30;99.90;;;;;;5069886;28;20426;-66
2022/08/20 05:21:39;;;;;;;3.03;2.72;;;21.40;99.90;;;;;;5063259;28;20190;-68
2022/08/20 05:24:06;;;;;;;3.55;2.35;;;21.50;99.90;;;;;;5069849;28;20201;-68
2022/08/20 05:26:33;;;;;;;4.88;2.45;;;21.40;99.90;;;;;;5069137;28;20214;-68
2022/08/20 05:29:01;;;;;;;2.53;2.33;;;21.50;99.90;;;;;;5065513;28;20199;-67
2022/08/20 05:31:29;;;;;;;2.95;2.50;;;21.50;99.90;;;;;;5061021;28;20198;-69
2022/08/20 05:34:00;;;;;;;3.17;2.80;;;21.50;99.90;;;;;;5047317;28;20228;-69
2022/08/20 05:36:27;;;;;;;4.15;3.20;;;21.40;99.90;;;;;;5068895;28;20720;-68
2022/08/20 05:38:53;;;;;;;4.88;3.90;;;21.20;99.90;;;;;;5061016;28;20670;-69
2022/08/20 05:41:20;;;;;;;7.38;5.60;;;21.20;99.90;;;;;;5067832;28;20252;-69
2022/08/20 05:43:56;;;;;;;9.18;6.22;;;21.10;99.90;;;;;;5069074;28;20292;-69
2022/08/20 05:46:23;;;;;;;7.22;6.05;;;21.20;99.90;;;;;;5064849;28;20229;-69
2022/08/20 05:48:50;;;;;;;9.25;6.65;;;21.00;99.90;;;;;;5070524;28;20210;-68
2022/08/20 05:51:16;;;;;;;8.57;6.53;;;20.80;99.90;;;;;;5067378;28;20220;-69
2022/08/20 05:53:43;;;;;;;8.32;6.20;;;20.80;99.90;;;;;;5067317;28;20283;-69
2022/08/20 05:56:10;;;;;;;8.07;6.25;;;20.80;99.90;;;;;;5060551;28;20215;-68
2022/08/20 05:58:37;;;;;;;9.73;6.95;;;20.90;99.90;;;;;;5071471;28;20343;-69
2022/08/20 06:01:04;;;;;;;8.20;5.97;;;21.10;99.90;;;;;;5075318;28;20240;-68
2022/08/20 06:06:16;;;;;;;8.07;6.40;;;21.30;99.90;;;;;;5066642;28;20691;-68
2022/08/20 06:09:03;;;;;;;8.88;6.57;;;21.30;99.90;;;;;;5068388;28;20252;-68
2022/08/20 06:11:30;;;;;;;9.30;6.90;;;21.40;99.90;;;;;;5059903;28;20194;-68
2022/08/20 06:14:03;;;;;;;8.23;6.60;;;21.50;99.90;;;;;;5051306;28;20210;-69
2022/08/20 06:16:30;;;;;;;7.28;6.05;;;21.60;99.90;;;;;;5059210;28;20590;-68
2022/08/20 06:18:57;;;;;;;8.02;6.15;;;21.70;99.90;;;;;;5067584;28;20194;-69
2022/08/20 06:21:24;;;;;;;8.00;6.97;;;21.80;99.90;;;;;;5067585;28;20281;-68
2022/08/20 06:23:51;;;;;;;10.32;7.57;;;21.90;99.90;;;;;;5065384;28;20284;-68
2022/08/20 06:26:25;;;;;;;8.05;6.75;;;22.00;99.90;;;;;;5066566;28;20230;-68
2022/08/20 06:28:57;;;;;;;10.63;7.82;;;22.10;99.90;;;;;;5067380;28;20303;-68
2022/08/20 06:31:26;;;;;;;10.95;7.43;;;22.20;99.90;;;;;;5067979;28;20194;-69
2022/08/20 06:33:52;;;;;;;7.40;5.93;;;22.40;99.90;;;;;;5064743;28;20701;-69
2022/08/20 06:36:19;;;;;;;7.80;6.28;;;22.60;99.90;;;;;;5065169;28;20218;-69
2022/08/20 06:38:46;;;;;;;5.97;5.20;;;22.80;99.90;;;;;;5063584;28;20202;-69
2022/08/20 06:41:12;;;;;;;8.07;6.72;;;23.00;99.90;;;;;;5064411;28;20247;-69
2022/08/20 06:43:39;;;;;;;8.77;6.15;;;23.20;99.90;;;;;;5066321;28;20201;-69
2022/08/20 06:46:07;;;;;;;8.52;5.85;;;23.40;99.90;;;;;;5063628;28;20222;-69
2022/08/20 06:48:34;;;;;;;10.18;6.22;;;23.50;99.90;;;;;;5067134;28;20669;-69
2022/08/20 06:51:00;;;;;;;7.25;6.18;;;23.50;99.90;;;;;;5066993;28;20230;-68
2022/08/20 06:53:27;;;;;;;6.97;5.38;;;23.60;99.90;;;;;;5066905;28;20232;-68
2022/08/20 06:55:57;;;;;;;5.45;4.82;;;23.60;99.90;;;;;;5063961;28;20218;-69
2022/08/20 06:58:24;;;;;;;6.35;5.07;;;23.70;99.90;;;;;;5050518;28;20201;-69
2022/08/20 07:01:06;;;;;;;4.60;4.00;;;23.80;99.90;;;;;;5067000;28;20671;-67
2022/08/20 07:03:37;;;;;;;5.03;3.75;;;23.90;99.90;;;;;;5051156;28;20203;-69
2022/08/20 07:06:04;;;;;;;5.10;4.07;;;23.90;99.90;;;;;;5050605;28;20301;-69
2022/08/20 07:08:32;;;;;;;4.50;3.53;;;24.00;99.90;;;;;;5050721;28;20201;-69
2022/08/20 07:10:59;;;;;;;4.25;3.65;;;24.10;99.90;;;;;;5051750;28;20674;-69
2022/08/20 07:13:26;;;;;;;3.92;3.03;;;24.20;99.90;;;;;;5050498;28;20705;-69
2022/08/20 07:15:54;;;;;;;4.40;3.70;;;24.30;99.90;;;;;;5050840;28;20269;-69
2022/08/20 07:18:22;;;;;;;4.00;3.60;;;24.60;99.90;;;;;;5036277;28;20213;-68
2022/08/20 07:20:56;;;;;;;4.22;3.70;;;24.30;99.90;;;;;;5050688;28;20242;-68
2022/08/20 07:23:24;;;;;;;3.58;3.10;;;24.40;99.90;;;;;;5050196;28;20617;-69
2022/08/20 07:25:51;;;;;;;3.72;3.03;;;24.40;99.90;;;;;;5051841;28;20218;-69
2022/08/20 07:28:24;;;;;;;3.40;3.10;;;24.20;99.90;;;;;;5065690;28;20627;-67
2022/08/20 07:33:40;;;;;;;3.65;2.92;;;24.10;99.90;;;;;;5050170;28;20728;-68
2022/08/20 07:36:08;;;;;;;3.20;2.90;;;24.00;99.90;;;;;;5050107;28;20223;-69
2022/08/20 07:38:36;;;;;;;3.05;2.70;;;23.90;99.90;;;;;;5050392;28;20690;-68
2022/08/20 07:41:12;;;;;;;3.13;2.83;;;24.10;99.90;;;;;;5050477;28;20195;-68
2022/08/20 07:43:40;;;;;;;4.18;2.80;;;24.30;99.90;;;;;;5050343;28;20203;-68
2022/08/20 07:46:08;;;;;;;3.10;2.80;;;24.40;99.90;;;;;;5050054;28;20272;-67
2022/08/20 07:48:38;;;;;;;3.08;2.65;;;24.70;99.90;;;;;;5050581;28;20689;-69
2022/08/20 07:51:07;;;;;;;3.35;3.05;;;25.20;99.90;;;;;;5050632;28;20244;-69
2022/08/20 07:53:36;;;;;;;3.00;2.70;;;25.50;99.90;;;;;;5053627;28;20214;-69
2022/08/20 07:56:05;;;;;;;3.35;2.78;;;25.90;99.90;;;;;;5054697;28;20229;-69
2022/08/20 07:58:34;;;;;;;3.05;2.25;;;26.20;99.90;;;;;;5050161;28;20218;-69
2022/08/20 08:01:01;;;;;;;2.97;2.67;;;26.10;99.90;;;;;;5050150;28;20195;-69
2022/08/20 08:03:28;;;;;;;3.17;2.75;;;26.30;99.90;;;;;;5050156;28;20199;-69
2022/08/20 08:06:15;;;;;;;3.35;3.03;;;26.20;99.90;;;;;;5050030;28;20231;-69
2022/08/20 08:08:54;;;;;;;3.20;2.90;;;25.60;99.90;;;;;;5050344;28;20228;-69
2022/08/20 08:11:21;;;;;;;3.30;3.00;;;25.60;99.90;;;;;;5051125;28;20198;-70
2022/08/20 08:13:48;;;;;;;2.80;2.60;;;25.50;99.90;;;;;;5058932;28;20222;-70
2022/08/20 08:16:15;;;;;;;4.63;2.80;;;25.40;99.90;;;;;;5036237;28;20777;-70
2022/08/20 08:18:48;;;;;;;2.50;2.25;;;25.30;99.90;;;;;;5054261;28;20191;-69
2022/08/20 08:21:16;;;;;;;4.55;2.55;;;25.20;99.90;;;;;;5054737;28;20203;-68
2022/08/20 08:23:43;;;;;;;2.30;2.10;;;25.40;99.90;;;;;;5054081;28;20678;-69
2022/08/20 08:26:15;;;;;;;2.67;2.47;;;25.50;99.90;;;;;;5054068;28;20717;-70
2022/08/20 08:28:45;;;;;;;2.60;2.40;;;25.60;99.90;;;;;;5054207;28;20212;-69
2022/08/20 08:31:13;;;;;;;2.50;2.30;;;25.70;99.90;;;;;;5054143;28;20293;-69
2022/08/20 08:33:40;;;;;;;2.50;2.30;;;25.70;99.90;;;;;;5053760;28;20218;-68
2022/08/20 08:36:10;;;;;;;4.90;2.65;;;26.00;99.90;;;;;;5053788;28;20223;-69
2022/08/20 08:38:39;;;;;;;3.45;2.58;;;26.20;99.90;;;;;;5053812;28;20568;-69
2022/08/20 08:41:17;;;;;;;4.05;2.20;;;26.20;99.90;;;;;;5053998;28;20214;-69
2022/08/20 08:43:49;;;;;;;3.90;2.22;;;26.60;99.90;;;;;;5053989;28;20190;-69
2022/08/20 08:46:21;;;;;;;2.40;2.20;;;26.90;99.90;;;;;;5054096;28;20231;-70
2022/08/20 08:48:52;;;;;;;2.20;2.00;;;27.10;99.90;;;;;;5053880;28;20209;-69
2022/08/20 08:51:28;;;;;;;2.28;2.08;;;27.10;99.90;;;;;;5055047;28;20207;-69
2022/08/20 08:53:56;;;;;;;2.58;2.38;;;27.10;99.90;;;;;;5054629;28;20899;-70
2022/08/20 08:56:26;;;;;;;2.75;2.20;;;27.20;99.90;;;;;;5055046;28;20219;-70
2022/08/20 08:58:59;;;;;;;2.20;1.95;;;27.30;99.90;;;;;;5055363;28;20191;-69
2022/08/20 09:01:27;;;;;;;3.10;2.10;;;27.50;99.90;;;;;;5054106;28;20198;-70
2022/08/20 09:04:15;;;;;;;2.38;2.17;;;27.70;99.90;;;;;;5055150;28;20430;-69
2022/08/20 09:06:49;;;;;;;4.20;2.30;;;28.00;99.90;;;;;;5055833;28;20562;-70
2022/08/20 09:09:27;;;;;;;3.45;2.28;;;28.40;99.90;;;;;;5056469;28;20205;-70
2022/08/20 09:12:02;;;;;;;2.83;2.25;;;28.80;99.90;;;;;;5057074;28;20194;-69
2022/08/20 09:14:29;;;;;;;3.38;2.20;;;29.00;99.90;;;;;;5056179;28;20222;-70
2022/08/20 09:16:56;;;;;;;3.60;1.80;;;29.00;99.90;;;;;;5053344;28;20642;-69
2022/08/20 09:19:23;;;;;;;2.45;2.20;;;29.00;99.90;;;;;;5045262;28;20209;-70
2022/08/20 09:21:49;;;;;;;2.15;1.95;;;29.00;99.90;;;;;;5074256;28;20197;-70
2022/08/20 09:24:16;;;;;;;2.65;2.13;;;28.30;99.90;;;;;;5073323;28;20220;-69
2022/08/20 09:26:43;;;;;;;3.10;1.95;;;28.20;99.90;;;;;;5063352;28;20226;-69
2022/08/20 09:29:10;;;;;;;2.10;1.80;;;27.70;99.90;;;;;;5053535;28;20244;-69
2022/08/20 09:31:37;;;;;;;1.95;1.70;;;27.30;99.90;;;;;;5052856;28;20191;-69
2022/08/20 09:34:04;;;;;;;1.70;1.60;;;27.10;99.90;;;;;;5053165;28;20217;-70
2022/08/20 09:36:31;;;;;;;1.48;1.38;;;26.80;99.90;;;;;;5052345;28;20245;-69
2022/08/20 09:38:59;;;;;;;4.43;1.70;;;26.80;99.90;;;;;;5052731;28;20282;-70
2022/08/20 09:41:28;;;;;;;1.50;1.40;;;26.80;99.90;;;;;;5052847;28;20671;-70
2022/08/20 09:43:55;;;;;;;1.52;1.40;;;27.20;99.90;;;;;;5052444;28;20195;-69
2022/08/20 09:46:22;;;;;;;1.40;1.30;;;27.60;99.90;;;;;;5052284;28;20222;-69
2022/08/20 09:48:53;;;;;;;1.33;1.23;;;27.90;99.90;;;;;;5052563;28;20678;-69
2022/08/20 09:51:20;;;;;;;2.45;1.08;;;28.20;99.90;;;;;;5052588;28;20202;-69
2022/08/20 09:53:47;;;;;;;1.20;0.90;;;27.70;99.90;;;;;;5052494;28;20221;-69
2022/08/20 09:56:14;;;;;;;0.90;0.77;;;27.70;99.90;;;;;;5052234;28;20214;-70
2022/08/20 09:58:52;;;;;;;0.60;0.60;;;27.80;99.90;;;;;;5052191;28;20195;-69
2022/08/20 10:01:20;;;;;;;0.70;0.70;;;28.20;99.90;;;;;;5068661;28;20642;-69
2022/08/20 10:03:48;;;;;;;0.98;0.70;;;28.70;99.90;;;;;;5052009;28;20199;-70
2022/08/20 10:06:18;;;;;;;0.70;0.70;;;29.00;99.90;;;;;;5051784;28;20746;-70
2022/08/20 10:08:45;;;;;;;0.70;0.70;;;28.80;99.90;;;;;;5051975;28;20191;-69
2022/08/20 10:11:11;;;;;;;0.93;0.90;;;28.40;99.90;;;;;;5051944;28;20206;-69
2022/08/20 10:13:38;;;;;;;0.88;0.70;;;28.30;99.90;;;;;;5034391;28;20211;-69
2022/08/20 10:16:05;;;;;;;0.55;0.52;;;28.40;99.90;;;;;;5051539;28;20218;-70
2022/08/20 10:18:33;;;;;;;2.03;0.77;;;28.50;99.90;;;;;;5051338;28;20198;-69
2022/08/20 10:21:00;;;;;;;0.50;0.50;;;28.30;99.90;;;;;;5051844;28;20191;-68
2022/08/20 10:23:28;;;;;;;0.40;0.40;;;28.30;99.90;;;;;;5051779;28;20209;-69
2022/08/20 10:25:54;;;;;;;1.27;0.40;;;28.50;99.90;;;;;;5051514;28;20218;-69
2022/08/20 10:28:21;;;;;;;2.03;0.65;;;28.60;99.90;;;;;;5035896;28;20214;-71
2022/08/20 10:30:48;;;;;;;1.17;0.68;;;28.60;99.90;;;;;;5051513;28;20191;-69
2022/08/20 10:33:14;;;;;;;0.68;0.68;;;28.40;99.90;;;;;;5034108;28;20217;-68
2022/08/20 10:35:41;;;;;;;0.30;0.30;;;28.60;99.90;;;;;;5050830;28;20218;-69
2022/08/20 10:38:08;;;;;;;0.63;0.50;;;28.70;99.90;;;;;;5056323;28;20601;-69
2022/08/20 10:40:34;;;;;;;0.40;0.40;;;28.70;99.90;;;;;;5051401;28;20587;-69
2022/08/20 10:43:01;;;;;;;0.40;0.40;;;28.90;99.90;;;;;;5051593;28;20202;-69
2022/08/20 10:45:28;;;;;;;0.30;0.30;;;29.00;99.90;;;;;;5056984;28;20722;-69
2022/08/20 10:47:58;;;;;;;0.65;0.20;;;28.70;99.90;;;;;;5051089;28;20218;-69
2022/08/20 10:50:25;;;;;;;0.30;0.30;;;28.80;99.90;;;;;;5051322;28;20286;-69
2022/08/20 10:52:56;;;;;;;0.40;0.40;;;29.00;99.90;;;;;;5051095;28;20203;-69
2022/08/20 10:55:23;;;;;;;0.40;0.30;;;29.30;99.90;;;;;;5050733;28;20241;-69
2022/08/20 10:57:49;;;;;;;0.35;0.35;;;29.50;99.90;;;;;;5069422;28;20198;-70
2022/08/20 11:00:17;;;;;;;1.30;0.60;;;29.70;99.90;;;;;;5071280;28;20195;-69
2022/08/20 11:02:44;;;;;;;0.40;0.40;;;29.40;99.90;;;;;;5071063;28;20198;-70
2022/08/20 11:05:11;;;;;;;0.30;0.30;;;28.90;99.90;;;;;;5060709;28;20245;-69
2022/08/20 11:07:40;;;;;;;0.80;0.38;;;28.70;99.90;;;;;;5032836;28;20209;-68
2022/08/20 11:10:26;;;;;;;2.45;0.50;;;28.70;99.90;;;;;;5050786;28;20631;-69
2022/08/20 11:12:53;;;;;;;1.40;1.20;;;28.60;99.90;;;;;;5050784;28;20199;-68
2022/08/20 11:15:20;;;;;;;2.05;1.65;;;28.50;99.90;;;;;;5050752;28;20365;-69
2022/08/20 11:17:47;;;;;;;0.70;0.60;;;28.40;99.90;;;;;;5050448;28;20206;-67
2022/08/20 11:20:17;;;;;;;0.40;0.40;;;28.80;99.90;;;;;;5050929;28;20203;-67
2022/08/20 11:22:43;;;;;;;1.30;0.75;;;29.10;99.90;;;;;;5050487;28;20206;-68
2022/08/20 11:25:10;;;;;;;0.82;0.60;;;29.50;99.90;;;;;;5063555;28;20190;-69
2022/08/20 11:27:43;;;;;;;1.08;0.88;;;29.70;99.90;;;;;;5070383;28;20205;-69
2022/08/20 11:30:15;;;;;;;0.60;0.60;;;29.70;99.90;;;;;;5070791;28;20217;-69
2022/08/20 11:32:41;;;;;;;1.40;1.30;;;29.50;99.90;;;;;;5064133;28;20199;-69
2022/08/20 11:35:09;;;;;;;0.45;0.45;;;29.40;99.90;;;;;;5050718;28;20222;-69
2022/08/20 11:37:57;;;;;;;1.02;0.93;;;28.70;99.90;;;;;;5050482;28;20207;-68
2022/08/20 11:40:25;;;;;;;1.17;0.70;;;28.40;99.90;;;;;;5050191;28;20198;-67
2022/08/20 11:42:53;;;;;;;1.15;0.65;;;28.20;99.90;;;;;;5050021;28;20650;-68
2022/08/20 11:45:40;;;;;;;0.95;0.90;;;28.60;99.90;;;;;;5049800;28;20272;-69
2022/08/20 11:48:06;;;;;;;1.55;1.25;;;28.90;99.90;;;;;;5032463;28;20198;-69
2022/08/20 11:50:33;;;;;;;1.70;1.60;;;29.20;99.90;;;;;;5056701;28;20198;-69
2022/08/20 11:53:00;;;;;;;1.63;1.52;;;29.60;99.90;;;;;;5032736;28;20427;-68
2022/08/20 11:55:27;;;;;;;0.90;0.82;;;29.80;99.90;;;;;;5050485;28;20714;-67
2022/08/20 11:57:57;;;;;;;0.55;0.55;;;30.00;99.90;;;;;;5069197;28;20255;-67
2022/08/20 12:00:27;;;;;;;0.85;0.60;;;30.40;99.90;;;;;;5050120;28;20282;-69
2022/08/20 12:02:59;;;;;;;0.70;0.70;;;30.10;99.90;;;;;;5050406;28;20191;-70
2022/08/20 12:05:28;;;;;;;0.98;0.85;;;29.50;99.90;;;;;;5049798;28;20230;-69
2022/08/20 12:07:55;;;;;;;1.55;0.85;;;29.60;99.90;;;;;;5049839;28;20285;-69
2022/08/20 12:10:23;;;;;;;1.10;0.80;;;29.60;99.90;;;;;;5049894;28;20609;-69
2022/08/20 12:12:49;;;;;;;1.40;1.00;;;29.60;99.90;;;;;;5049807;28;20195;-69
2022/08/20 12:15:16;;;;;;;1.17;0.73;;;29.50;99.90;;;;;;5050080;28;20219;-69
2022/08/20 12:17:43;;;;;;;0.85;0.80;;;29.30;99.90;;;;;;5049566;28;20252;-69
2022/08/20 12:20:12;;;;;;;3.55;1.00;;;29.30;99.90;;;;;;5049870;28;20628;-68
2022/08/20 12:22:40;;;;;;;1.10;1.00;;;29.50;99.90;;;;;;5049764;28;20198;-69
2022/08/20 12:25:07;;;;;;;1.77;1.00;;;29.40;99.90;;;;;;5049417;28;20678;-69
2022/08/20 12:27:35;;;;;;;1.13;0.98;;;29.30;99.90;;;;;;5049270;28;20203;-69
2022/08/20 12:30:13;;;;;;;1.33;0.95;;;29.60;99.90;;;;;;5032104;28;20199;-69
2022/08/20 12:32:41;;;;;;;1.30;1.10;;;29.80;99.90;;;;;;5049670;28;20206;-69
2022/08/20 12:35:09;;;;;;;2.20;1.23;;;29.10;99.90;;;;;;5049577;28;20244;-69
2022/08/20 12:37:36;;;;;;;4.00;1.00;;;29.20;99.90;;;;;;5050080;28;20199;-69
2022/08/20 12:40:06;;;;;;;1.88;1.08;;;29.50;99.90;;;;;;5049727;28;20202;-69
2022/08/20 12:42:33;;;;;;;3.17;1.25;;;30.10;99.90;;;;;;5049640;28;20667;-69
2022/08/20 12:45:00;;;;;;;1.58;1.08;;;30.30;99.90;;;;;;5049919;28;20202;-68
2022/08/20 12:47:33;;;;;;;1.40;1.20;;;30.40;99.90;;;;;;5049507;28;20223;-69
2022/08/20 12:50:03;;;;;;;2.00;1.00;;;30.20;99.90;;;;;;5031872;28;20205;-70
2022/08/20 12:52:31;;;;;;;1.20;1.08;;;30.10;99.90;;;;;;5049465;28;20203;-69
2022/08/20 12:54:58;;;;;;;2.20;1.35;;;29.90;99.90;;;;;;5049758;28;20217;-69
2022/08/20 12:57:34;;;;;;;1.70;1.25;;;29.50;99.90;;;;;;5050465;28;20222;-69
2022/08/20 13:00:07;;;;;;;1.42;1.33;;;29.60;99.90;;;;;;5053269;28;20190;-69
2022/08/20 13:02:35;;;;;;;1.77;1.40;;;29.70;98.80;;;;;;5053386;28;20202;-69
2022/08/20 13:05:01;;;;;;;3.00;1.30;;;29.80;98.10;;;;;;5053003;28;20194;-69